createdAt,value
2023-02-25T00:01:14.173Z,100169.59
2023-02-25T00:03:41.118Z,100171.22
2023-02-25T00:06:09.865Z,100156.72
2023-02-25T00:08:36.520Z,100167.13
2023-02-25T00:11:04.946Z,100157.16
2023-02-25T00:13:31.942Z,100153.06
2023-02-25T00:15:58.329Z,100165.22
2023-02-25T00:18:26.125Z,100158.34
2023-02-25T00:20:52.767Z,100160.00
2023-02-25T00:23:19.124Z,100160.44
2023-02-25T00:25:45.834Z,100166.31
2023-02-25T00:28:12.710Z,100173.78
2023-02-25T00:30:40.216Z,100170.50
2023-02-25T00:33:06.694Z,100173.78
2023-02-25T00:35:33.366Z,100167.13
2023-02-25T00:38:13.812Z,100173.19
2023-02-25T00:40:42.250Z,100165.13
2023-02-25T00:43:08.576Z,100169.75
2023-02-25T00:45:34.980Z,100172.28
2023-02-25T00:48:01.335Z,100165.28
2023-02-25T00:50:27.712Z,100167.75
2023-02-25T00:52:54.081Z,100165.66
2023-02-25T00:55:20.524Z,100172.88
2023-02-25T00:57:46.934Z,100165.19
2023-02-25T01:00:16.293Z,100167.38
2023-02-25T01:02:45.548Z,100159.31
2023-02-25T01:05:15.454Z,100165.88
2023-02-25T01:07:42.452Z,100166.09
2023-02-25T01:10:10.792Z,100171.94
2023-02-25T01:12:37.696Z,100163.72
2023-02-25T01:15:04.953Z,100165.34
2023-02-25T01:17:31.570Z,100179.06
2023-02-25T01:19:57.978Z,100159.97
2023-02-25T01:22:25.309Z,100171.09
2023-02-25T01:24:55.170Z,100169.91
2023-02-25T01:27:21.681Z,100170.88
2023-02-25T01:29:48.016Z,100170.28
2023-02-25T01:32:15.304Z,100173.56
2023-02-25T01:34:42.193Z,100173.66
2023-02-25T01:37:09.638Z,100170.38
2023-02-25T01:39:36.165Z,100169.78
2023-02-25T01:42:04.546Z,100170.72
2023-02-25T01:44:33.814Z,100178.38
2023-02-25T01:47:01.477Z,100169.91
2023-02-25T01:49:39.882Z,100177.25
2023-02-25T01:52:10.206Z,100171.28
2023-02-25T01:54:37.621Z,100171.72
2023-02-25T01:57:09.181Z,100167.75
2023-02-25T01:59:36.923Z,100177.00
2023-02-25T02:02:03.894Z,100181.16
2023-02-25T02:04:31.517Z,100179.06
2023-02-25T02:06:59.061Z,100174.91
2023-02-25T02:09:28.367Z,100172.22
2023-02-25T02:12:04.699Z,100172.91
2023-02-25T02:14:41.482Z,100178.91
2023-02-25T02:17:18.818Z,100169.19
2023-02-25T02:19:48.367Z,100169.19
2023-02-25T02:22:27.275Z,100172.31
2023-02-25T02:25:02.782Z,100174.41
2023-02-25T02:28:06.460Z,100174.41
2023-02-25T02:30:38.433Z,100166.78
2023-02-25T02:33:04.812Z,100174.78
2023-02-25T02:35:44.615Z,100174.69
2023-02-25T02:38:32.776Z,100176.34
2023-02-25T02:41:23.652Z,100185.19
2023-02-25T02:44:11.520Z,100184.97
2023-02-25T02:46:47.509Z,100182.72
2023-02-25T02:49:21.807Z,100176.03
2023-02-25T02:51:53.616Z,100181.28
2023-02-25T02:54:22.432Z,100174.84
2023-02-25T02:56:54.470Z,100186.22
2023-02-25T02:59:25.804Z,100172.25
2023-02-25T03:02:17.454Z,100180.09
2023-02-25T03:04:47.322Z,100183.00
2023-02-25T03:07:14.986Z,100185.53
2023-02-25T03:09:49.035Z,100183.09
2023-02-25T03:12:15.700Z,100184.72
2023-02-25T03:14:42.106Z,100192.19
2023-02-25T03:17:16.732Z,100183.69
2023-02-25T03:20:22.059Z,100186.97
2023-02-25T03:22:51.789Z,100187.56
2023-02-25T03:25:24.795Z,100183.44
2023-02-25T03:27:54.424Z,100189.88
2023-02-25T03:30:44.041Z,100186.38
2023-02-25T03:33:15.447Z,100178.91
2023-02-25T03:35:43.303Z,100183.59
2023-02-25T03:38:15.566Z,100182.56
2023-02-25T03:40:43.126Z,100191.75
2023-02-25T03:43:14.086Z,100195.09
2023-02-25T03:45:43.293Z,100192.19
2023-02-25T03:48:11.720Z,100208.34
2023-02-25T03:50:46.884Z,100206.47
2023-02-25T03:53:13.327Z,100199.66
2023-02-25T03:55:39.977Z,100200.13
2023-02-25T03:58:08.231Z,100198.03
2023-02-25T04:00:36.168Z,100211.03
2023-02-25T04:03:03.479Z,100203.44
2023-02-25T04:05:29.857Z,100211.72
2023-02-25T04:07:58.023Z,100209.16
2023-02-25T04:10:24.931Z,100208.63
2023-02-25T04:12:51.394Z,100222.69
2023-02-25T04:15:18.720Z,100216.50
2023-02-25T04:17:45.397Z,100215.91
2023-02-25T04:20:13.740Z,100211.50
2023-02-25T04:22:41.467Z,100216.63
2023-02-25T04:25:08.874Z,100222.09
2023-02-25T04:27:35.264Z,100227.47
2023-02-25T04:30:01.879Z,100228.66
2023-02-25T04:32:28.508Z,100231.38
2023-02-25T04:34:54.911Z,100235.84
2023-02-25T04:37:21.243Z,100230.34
2023-02-25T04:39:47.719Z,100236.31
2023-02-25T04:42:14.292Z,100228.66
2023-02-25T04:44:40.714Z,100226.78
2023-02-25T04:47:07.148Z,100229.66
2023-02-25T04:49:45.119Z,100232.47
2023-02-25T04:52:12.853Z,100233.31
2023-02-25T04:54:39.494Z,100224.19
2023-02-25T04:57:07.232Z,100229.88
2023-02-25T04:59:33.735Z,100227.78
2023-02-25T05:02:00.776Z,100231.66
2023-02-25T05:04:27.376Z,100227.34
2023-02-25T05:06:53.752Z,100215.75
2023-02-25T05:09:21.241Z,100224.19
2023-02-25T05:11:47.762Z,100229.19
2023-02-25T05:14:14.155Z,100226.28
2023-02-25T05:16:40.613Z,100228.97
2023-02-25T05:19:07.043Z,100230.03
2023-02-25T05:21:33.466Z,100232.72
2023-02-25T05:23:59.835Z,100229.78
2023-02-25T05:26:26.481Z,100233.94
2023-02-25T05:28:55.272Z,100218.59
2023-02-25T05:31:22.960Z,100225.63
2023-02-25T05:33:49.519Z,100218.59
2023-02-25T05:36:16.732Z,100215.69
2023-02-25T05:38:43.858Z,100225.25
2023-02-25T05:41:15.135Z,100211.78
2023-02-25T05:43:42.138Z,100221.50
2023-02-25T05:46:13.091Z,100224.78
2023-02-25T05:48:46.617Z,100232.47
2023-02-25T05:51:15.985Z,100231.53
2023-02-25T05:53:44.692Z,100228.66
2023-02-25T05:56:15.075Z,100226.75
2023-02-25T05:58:42.229Z,100231.53
2023-02-25T06:01:13.984Z,100234.34
2023-02-25T06:03:45.196Z,100225.69
2023-02-25T06:06:13.332Z,100231.66
2023-02-25T06:08:40.911Z,100236.44
2023-02-25T06:11:08.543Z,100243.50
2023-02-25T06:13:35.232Z,100247.59
2023-02-25T06:16:05.652Z,100243.53
2023-02-25T06:18:37.113Z,100250.59
2023-02-25T06:21:09.391Z,100254.69
2023-02-25T06:23:37.484Z,100254.91
2023-02-25T06:26:05.698Z,100250.19
2023-02-25T06:28:32.710Z,100241.09
2023-02-25T06:30:59.825Z,100250.97
2023-02-25T06:33:26.424Z,100251.25
2023-02-25T06:35:55.646Z,100258.69
2023-02-25T06:38:22.260Z,100253.94
2023-02-25T06:40:49.652Z,100264.72
2023-02-25T06:43:16.841Z,100273.38
2023-02-25T06:45:43.307Z,100273.53
2023-02-25T06:48:10.136Z,100267.53
2023-02-25T06:50:39.244Z,100273.53
2023-02-25T06:53:06.355Z,100277.88
2023-02-25T06:55:32.883Z,100274.72
2023-02-25T06:57:59.274Z,100280.69
2023-02-25T07:00:25.990Z,100278.47
2023-02-25T07:02:52.333Z,100285.34
2023-02-25T07:05:18.782Z,100290.72
2023-02-25T07:07:45.086Z,100293.56
2023-02-25T07:10:11.596Z,100288.78
2023-02-25T07:12:38.114Z,100291.03
2023-02-25T07:15:05.196Z,100287.16
2023-02-25T07:17:31.527Z,100301.72
2023-02-25T07:19:58.009Z,100295.31
2023-02-25T07:22:24.426Z,100307.06
2023-02-25T07:24:51.265Z,100315.16
2023-02-25T07:27:17.633Z,100310.78
2023-02-25T07:29:43.942Z,100317.22
2023-02-25T07:32:10.406Z,100320.34
2023-02-25T07:34:38.037Z,100320.34
2023-02-25T07:37:04.406Z,100307.31
2023-02-25T07:39:30.795Z,100308.78
2023-02-25T07:41:57.234Z,100313.06
2023-02-25T07:44:23.905Z,100315.88
2023-02-25T07:46:50.321Z,100318.16
2023-02-25T07:49:16.849Z,100316.03
2023-02-25T07:51:43.223Z,100314.78
2023-02-25T07:54:09.566Z,100312.75
2023-02-25T07:56:35.998Z,100313.13
2023-02-25T07:59:02.430Z,100318.06
2023-02-25T08:01:31.857Z,100315.59
2023-02-25T08:04:00.333Z,100332.94
2023-02-25T08:06:28.023Z,100324.00
2023-02-25T08:08:55.508Z,100326.22
2023-02-25T08:11:24.209Z,100324.00
2023-02-25T08:13:50.750Z,100331.19
2023-02-25T08:16:20.190Z,100319.56
2023-02-25T08:18:47.590Z,100328.63
2023-02-25T08:21:17.993Z,100327.72
2023-02-25T08:23:44.952Z,100329.00
2023-02-25T08:26:11.402Z,100326.16
2023-02-25T08:28:37.976Z,100324.28
2023-02-25T08:31:11.562Z,100319.03
2023-02-25T08:33:40.663Z,100324.00
2023-02-25T08:36:12.908Z,100326.09
2023-02-25T08:38:39.745Z,100325.50
2023-02-25T08:41:07.154Z,100328.78
2023-02-25T08:43:34.037Z,100332.38
2023-02-25T08:46:01.408Z,100320.84
2023-02-25T08:48:28.046Z,100327.28
2023-02-25T08:50:55.520Z,100335.97
2023-02-25T08:53:22.746Z,100338.94
2023-02-25T08:55:51.031Z,100339.97
2023-02-25T08:58:17.428Z,100342.06
2023-02-25T09:00:43.833Z,100337.50
2023-02-25T09:03:10.273Z,100341.63
2023-02-25T09:05:38.016Z,100336.69
2023-02-25T09:08:04.908Z,100341.03
2023-02-25T09:10:48.245Z,100336.00
2023-02-25T09:13:17.163Z,100334.44
2023-02-25T09:15:43.651Z,100330.09
2023-02-25T09:18:11.605Z,100331.31
2023-02-25T09:20:38.499Z,100335.81
2023-02-25T09:23:04.884Z,100344.03
2023-02-25T09:25:31.418Z,100342.34
2023-02-25T09:27:57.812Z,100341.66
2023-02-25T09:30:24.297Z,100343.19
2023-02-25T09:32:51.041Z,100361.44
2023-02-25T09:35:17.649Z,100355.56
2023-02-25T09:37:44.036Z,100358.72
2023-02-25T09:40:18.432Z,100361.69
2023-02-25T09:42:50.693Z,100364.00
2023-02-25T09:45:20.059Z,100369.03
2023-02-25T09:47:52.835Z,100364.91
2023-02-25T09:50:24.477Z,100375.63
2023-02-25T09:53:00.904Z,100381.78
2023-02-25T09:55:35.029Z,100387.03
2023-02-25T09:58:08.771Z,100377.81
2023-02-25T10:00:43.290Z,100385.97
2023-02-25T10:03:25.775Z,100391.19
2023-02-25T10:06:16.474Z,100403.56
2023-02-25T10:08:50.134Z,100397.41
2023-02-25T10:11:27.459Z,100408.25
2023-02-25T10:14:03.259Z,100409.59
2023-02-25T10:16:43.298Z,100391.28
2023-02-25T10:19:18.863Z,100388.44
2023-02-25T10:22:22.632Z,100392.75
2023-02-25T10:25:12.025Z,100388.88
2023-02-25T10:27:43.783Z,100394.06
2023-02-25T10:30:21.758Z,100405.09
2023-02-25T10:32:49.074Z,100397.47
2023-02-25T10:35:29.118Z,100402.41
2023-02-25T10:37:55.819Z,100401.56
2023-02-25T10:40:25.084Z,100409.19
2023-02-25T10:42:54.465Z,100408.47
2023-02-25T10:45:25.798Z,100415.41
2023-02-25T10:48:26.546Z,100414.59
2023-02-25T10:51:14.724Z,100414.31
2023-02-25T10:54:06.561Z,100425.25
2023-02-25T10:56:44.193Z,100422.16
2023-02-25T10:59:37.036Z,100430.25
2023-02-25T11:02:18.530Z,100456.88
2023-02-25T11:04:44.995Z,100467.78
2023-02-25T11:07:35.557Z,100479.19
2023-02-25T11:10:17.483Z,100482.66
2023-02-25T11:12:49.956Z,100480.28
2023-02-25T11:15:19.758Z,100480.00
2023-02-25T11:17:46.500Z,100479.69
2023-02-25T11:20:26.013Z,100487.50
2023-02-25T11:22:57.948Z,100479.53
2023-02-25T11:25:36.932Z,100486.50
2023-02-25T11:28:05.044Z,100479.28
2023-02-25T11:30:38.491Z,100475.06
2023-02-25T11:33:14.361Z,100488.16
2023-02-25T11:35:41.226Z,100475.47
2023-02-25T11:38:27.618Z,100474.63
2023-02-25T11:40:55.216Z,100452.69
2023-02-25T11:43:28.020Z,100462.34
2023-02-25T11:46:00.345Z,100459.44
2023-02-25T11:48:47.287Z,100463.81
2023-02-25T11:51:22.677Z,100458.88
2023-02-25T11:54:07.535Z,100459.50
2023-02-25T11:56:40.411Z,100458.94
2023-02-25T11:59:37.247Z,100464.34
2023-02-25T12:02:47.775Z,100465.56
2023-02-25T12:05:30.592Z,100468.91
2023-02-25T12:08:32.929Z,100469.16
2023-02-25T12:11:31.231Z,100458.47
2023-02-25T12:14:29.768Z,100464.31
2023-02-25T12:17:37.183Z,100459.19
2023-02-25T12:20:21.921Z,100454.75
2023-02-25T12:23:06.730Z,100446.91
2023-02-25T12:25:48.451Z,100448.88
2023-02-25T12:28:40.884Z,100456.28
2023-02-25T12:31:40.866Z,100462.13
2023-02-25T12:34:44.781Z,100465.84
2023-02-25T12:37:42.338Z,100463.38
2023-02-25T12:40:23.854Z,100470.91
2023-02-25T12:43:15.902Z,100475.09
2023-02-25T12:46:15.204Z,100472.56
2023-02-25T12:49:04.198Z,100467.91
2023-02-25T12:52:15.033Z,100459.09
2023-02-25T12:55:06.598Z,100467.53
2023-02-25T12:57:49.026Z,100461.34
2023-02-25T13:00:45.477Z,100471.22
2023-02-25T13:03:36.429Z,100469.34
2023-02-25T13:06:17.711Z,100472.03
2023-02-25T13:09:01.154Z,100492.47
2023-02-25T13:12:10.548Z,100494.47
2023-02-25T13:14:46.637Z,100512.16
2023-02-25T13:17:43.584Z,100506.22
2023-02-25T13:20:34.950Z,100507.19
2023-02-25T13:23:26.378Z,100503.81
2023-02-25T13:26:28.103Z,100504.97
2023-02-25T13:29:15.702Z,100501.16
2023-02-25T13:31:45.022Z,100498.72
2023-02-25T13:34:29.500Z,100499.00
2023-02-25T13:37:08.253Z,100499.47
2023-02-25T13:39:48.610Z,100512.22
2023-02-25T13:42:36.192Z,100502.72
2023-02-25T13:45:45.961Z,100503.72
2023-02-25T13:48:39.790Z,100499.66
2023-02-25T13:51:44.357Z,100510.09
2023-02-25T13:54:33.862Z,100517.41
2023-02-25T13:57:22.040Z,100504.34
2023-02-25T14:00:09.167Z,100513.53
2023-02-25T14:02:50.453Z,100507.69
2023-02-25T14:05:33.579Z,100512.69
2023-02-25T14:08:24.600Z,100517.22
2023-02-25T14:11:15.919Z,100533.06
2023-02-25T14:13:54.595Z,100526.16
2023-02-25T14:16:29.601Z,100533.84
2023-02-25T14:19:29.037Z,100534.47
2023-02-25T14:22:07.463Z,100533.97
2023-02-25T14:25:02.696Z,100532.94
2023-02-25T14:27:32.839Z,100538.19
2023-02-25T14:30:12.865Z,100529.06
2023-02-25T14:32:57.092Z,100532.75
2023-02-25T14:35:32.881Z,100519.81
2023-02-25T14:38:11.770Z,100524.28
2023-02-25T14:40:47.319Z,100534.59
2023-02-25T14:43:35.389Z,100542.34
2023-02-25T14:46:17.383Z,100545.94
2023-02-25T14:48:59.513Z,100551.81
2023-02-25T14:51:35.732Z,100555.16
2023-02-25T14:54:10.945Z,100560.63
2023-02-25T14:56:49.365Z,100559.81
2023-02-25T14:59:29.626Z,100562.06
2023-02-25T15:02:16.116Z,100570.00
2023-02-25T15:05:14.827Z,100560.25
2023-02-25T15:08:00.150Z,100576.94
2023-02-25T15:11:06.685Z,100574.59
2023-02-25T15:13:51.447Z,100576.94
2023-02-25T15:16:30.878Z,100578.31
2023-02-25T15:19:35.762Z,100572.91
2023-02-25T15:22:14.247Z,100580.38
2023-02-25T15:24:41.835Z,100576.66
2023-02-25T15:27:33.798Z,100580.47
2023-02-25T15:30:03.747Z,100580.13
2023-02-25T15:32:46.895Z,100578.69
2023-02-25T15:35:20.498Z,100590.31
2023-02-25T15:37:50.006Z,100596.28
2023-02-25T15:40:16.368Z,100606.69
2023-02-25T15:42:54.662Z,100612.44
2023-02-25T15:45:27.558Z,100607.84
2023-02-25T15:48:12.516Z,100629.28
2023-02-25T15:50:47.583Z,100624.19
2023-02-25T15:53:20.971Z,100633.50
2023-02-25T15:56:03.612Z,100630.88
2023-02-25T15:58:30.262Z,100635.59
2023-02-25T16:01:05.737Z,100632.81
2023-02-25T16:03:32.092Z,100639.19
2023-02-25T16:06:16.695Z,100647.72
2023-02-25T16:09:06.485Z,100662.41
2023-02-25T16:11:45.566Z,100663.19
2023-02-25T16:14:31.566Z,100665.50
2023-02-25T16:17:14.183Z,100665.78
2023-02-25T16:19:42.140Z,100672.19
2023-02-25T16:22:19.686Z,100684.66
2023-02-25T16:24:52.276Z,100684.94
2023-02-25T16:27:36.450Z,100691.41
2023-02-25T16:30:13.991Z,100694.78
2023-02-25T16:32:43.794Z,100702.47
2023-02-25T16:35:36.494Z,100698.97
2023-02-25T16:38:22.392Z,100698.91
2023-02-25T16:40:49.089Z,100711.41
2023-02-25T16:43:21.975Z,100714.09
2023-02-25T16:46:02.626Z,100716.03
2023-02-25T16:48:34.680Z,100716.69
2023-02-25T16:51:10.484Z,100727.22
2023-02-25T16:53:45.798Z,100730.31
2023-02-25T16:56:21.710Z,100734.69
2023-02-25T16:59:04.770Z,100735.31
2023-02-25T17:01:33.184Z,100739.34
2023-02-25T17:04:14.205Z,100737.06
2023-02-25T17:06:40.779Z,100746.19
2023-02-25T17:09:07.345Z,100754.69
2023-02-25T17:11:33.910Z,100755.56
2023-02-25T17:14:04.195Z,100757.19
2023-02-25T17:16:37.208Z,100763.47
2023-02-25T17:19:08.525Z,100767.59
2023-02-25T17:21:47.168Z,100771.75
2023-02-25T17:24:22.339Z,100765.53
2023-02-25T17:26:50.996Z,100782.94
2023-02-25T17:29:18.702Z,100786.66
2023-02-25T17:31:50.909Z,100789.59
2023-02-25T17:34:29.483Z,100797.25
2023-02-25T17:36:59.127Z,100796.81
2023-02-25T17:39:26.078Z,100791.66
2023-02-25T17:41:53.246Z,100793.34
2023-02-25T17:44:42.517Z,100800.16
2023-02-25T17:47:12.553Z,100808.22
2023-02-25T17:49:39.135Z,100800.38
2023-02-25T17:52:21.650Z,100807.19
2023-02-25T17:54:55.414Z,100816.94
2023-02-25T17:57:24.490Z,100817.72
2023-02-25T18:00:04.391Z,100825.81
2023-02-25T18:02:43.866Z,100831.59
2023-02-25T18:05:10.179Z,100840.72
2023-02-25T18:07:37.989Z,100839.28
2023-02-25T18:10:05.304Z,100835.97
2023-02-25T18:12:37.683Z,100846.31
2023-02-25T18:15:16.126Z,100845.06
2023-02-25T18:17:47.316Z,100851.06
2023-02-25T18:20:35.199Z,100853.16
2023-02-25T18:23:13.524Z,100858.50
2023-02-25T18:25:42.816Z,100856.47
2023-02-25T18:28:24.025Z,100859.56
2023-02-25T18:30:50.785Z,100866.97
2023-02-25T18:33:17.922Z,100871.53
2023-02-25T18:35:46.927Z,100883.50
2023-02-25T18:38:19.898Z,100882.50
2023-02-25T18:40:47.377Z,100887.44
2023-02-25T18:43:30.505Z,100884.31
2023-02-25T18:45:57.056Z,100890.13
2023-02-25T18:48:23.451Z,100892.59
2023-02-25T18:50:49.808Z,100893.22
2023-02-25T18:53:24.317Z,100892.81
2023-02-25T18:55:52.739Z,100899.22
2023-02-25T18:58:21.809Z,100904.56
2023-02-25T19:00:54.613Z,100907.44
2023-02-25T19:03:24.587Z,100906.16
2023-02-25T19:05:50.940Z,100908.22
2023-02-25T19:08:17.992Z,100913.97
2023-02-25T19:10:45.634Z,100931.97
2023-02-25T19:13:18.911Z,100926.78
2023-02-25T19:15:45.396Z,100925.75
2023-02-25T19:18:13.513Z,100927.53
2023-02-25T19:20:40.887Z,100935.81
2023-02-25T19:23:07.246Z,100926.50
2023-02-25T19:25:35.628Z,100937.00
2023-02-25T19:28:03.264Z,100940.72
2023-02-25T19:30:34.802Z,100945.72
2023-02-25T19:33:04.844Z,100943.78
2023-02-25T19:35:33.623Z,100947.72
2023-02-25T19:38:00.306Z,100941.50
2023-02-25T19:40:28.931Z,100954.31
2023-02-25T19:42:56.040Z,100953.88
2023-02-25T19:45:24.025Z,100959.44
2023-02-25T19:47:50.900Z,100961.25
2023-02-25T19:50:19.185Z,100956.00
2023-02-25T19:52:45.557Z,100964.69
2023-02-25T19:55:13.317Z,100964.50
2023-02-25T19:57:40.814Z,100969.69
2023-02-25T20:00:13.928Z,100973.00
2023-02-25T20:02:40.753Z,100976.97
2023-02-25T20:05:08.055Z,100978.38
2023-02-25T20:07:35.082Z,100977.25
2023-02-25T20:10:01.455Z,100981.81
2023-02-25T20:12:27.945Z,100990.50
2023-02-25T20:14:54.299Z,100984.69
2023-02-25T20:17:20.634Z,100987.75
2023-02-25T20:19:47.553Z,100993.28
2023-02-25T20:22:14.104Z,100990.69
2023-02-25T20:24:40.427Z,100988.88
2023-02-25T20:27:06.787Z,100992.41
2023-02-25T20:29:33.318Z,100995.66
2023-02-25T20:31:59.835Z,101008.25
2023-02-25T20:34:27.489Z,101012.31
2023-02-25T20:37:02.427Z,101012.22
2023-02-25T20:39:41.606Z,101016.59
2023-02-25T20:42:14.355Z,101021.31
2023-02-25T20:44:41.266Z,101023.94
2023-02-25T20:47:12.371Z,101024.97
2023-02-25T20:49:40.435Z,101024.69
2023-02-25T20:52:07.138Z,101018.06
2023-02-25T20:54:33.488Z,101025.91
2023-02-25T20:57:00.561Z,101037.66
2023-02-25T20:59:26.915Z,101029.56
2023-02-25T21:01:53.330Z,101042.16
2023-02-25T21:04:19.778Z,101053.25
2023-02-25T21:06:46.225Z,101048.41
2023-02-25T21:09:12.738Z,101054.31
2023-02-25T21:11:39.209Z,101057.28
2023-02-25T21:14:10.105Z,101057.81
2023-02-25T21:16:37.376Z,101057.63
2023-02-25T21:19:05.219Z,101048.94
2023-02-25T21:21:36.887Z,101060.44
2023-02-25T21:24:08.543Z,101058.78
2023-02-25T21:26:39.072Z,101056.94
2023-02-25T21:29:06.320Z,101060.16
2023-02-25T21:31:32.833Z,101059.72
2023-02-25T21:34:00.470Z,101066.09
2023-02-25T21:36:26.899Z,101066.84
2023-02-25T21:38:53.351Z,101058.97
2023-02-25T21:41:20.120Z,101061.66
2023-02-25T21:43:46.559Z,101061.19
2023-02-25T21:46:16.292Z,101061.19
2023-02-25T21:48:44.292Z,101070.47
2023-02-25T21:51:18.980Z,101065.09
2023-02-25T21:53:45.458Z,101071.22
2023-02-25T21:56:15.690Z,101067.31
2023-02-25T21:58:43.257Z,101065.00
2023-02-25T22:01:19.663Z,101063.72
2023-02-25T22:03:47.177Z,101072.31
2023-02-25T22:06:14.091Z,101070.66
2023-02-25T22:08:42.510Z,101070.66
2023-02-25T22:11:16.501Z,101075.09
2023-02-25T22:13:43.443Z,101075.25
2023-02-25T22:16:11.563Z,101073.44
2023-02-25T22:18:38.503Z,101071.41
2023-02-25T22:21:09.682Z,101078.81
2023-02-25T22:23:36.320Z,101079.81
2023-02-25T22:26:09.348Z,101077.69
2023-02-25T22:28:36.735Z,101068.81
2023-02-25T22:31:03.883Z,101076.91
2023-02-25T22:33:33.180Z,101080.63
2023-02-25T22:36:01.917Z,101079.81
2023-02-25T22:38:33.894Z,101083.66
2023-02-25T22:41:01.335Z,101087.25
2023-02-25T22:43:28.591Z,101097.97
2023-02-25T22:46:11.860Z,101091.97
2023-02-25T22:48:40.091Z,101101.38
2023-02-25T22:51:09.220Z,101096.38
2023-02-25T22:53:36.715Z,101107.25
2023-02-25T22:56:06.108Z,101107.81
2023-02-25T22:58:33.246Z,101111.44
2023-02-25T23:00:59.708Z,101103.09
2023-02-25T23:03:26.496Z,101111.13
2023-02-25T23:05:54.672Z,101112.97
2023-02-25T23:08:22.345Z,101113.47
2023-02-25T23:10:49.568Z,101107.97
2023-02-25T23:13:16.106Z,101119.53
2023-02-25T23:15:47.258Z,101115.34
2023-02-25T23:18:15.247Z,101120.22
2023-02-25T23:20:41.698Z,101121.03
2023-02-25T23:23:09.480Z,101124.06
2023-02-25T23:25:38.797Z,101119.88
2023-02-25T23:28:07.788Z,101119.16
2023-02-25T23:30:38.479Z,101126.03
2023-02-25T23:33:05.883Z,101131.72
2023-02-25T23:35:33.422Z,101124.06
2023-02-25T23:38:00.370Z,101119.88
2023-02-25T23:40:26.825Z,101124.78
2023-02-25T23:42:53.493Z,101126.78
2023-02-25T23:45:19.952Z,101113.69
2023-02-25T23:47:46.442Z,101121.09
2023-02-25T23:50:18.055Z,101122.63
2023-02-25T23:52:46.614Z,101132.50
2023-02-25T23:55:14.326Z,101138.19
2023-02-25T23:57:41.101Z,101137.25
